sensor_id;sensor_type;location;lat;lon;timestamp;P1;durP1;ratioP1;P2;durP2;ratioP2
35128;SDS011;21301;43.626;10.580;2023-11-19T00:00:28;25.65;;;16.73;;
35128;SDS011;21301;43.626;10.580;2023-11-19T00:02:54;24.88;;;17.35;;
35128;SDS011;21301;43.626;10.580;2023-11-19T00:05:19;27.60;;;16.23;;
35128;SDS011;21301;43.626;10.580;2023-11-19T00:07:45;22.48;;;15.63;;
35128;SDS011;21301;43.626;10.580;2023-11-19T00:10:11;25.48;;;16.92;;
35128;SDS011;21301;43.626;10.580;2023-11-19T00:12:45;26.30;;;14.75;;
35128;SDS011;21301;43.626;10.580;2023-11-19T00:15:14;24.98;;;16.30;;
35128;SDS011;21301;43.626;10.580;2023-11-19T00:17:41;29.38;;;15.70;;
35128;SDS011;21301;43.626;10.580;2023-11-19T00:20:10;25.85;;;15.00;;
35128;SDS011;21301;43.626;10.580;2023-11-19T00:22:40;25.55;;;15.10;;
35128;SDS011;21301;43.626;10.580;2023-11-19T00:25:07;23.05;;;16.48;;
35128;SDS011;21301;43.626;10.580;2023-11-19T00:27:33;21.02;;;14.48;;
35128;SDS011;21301;43.626;10.580;2023-11-19T00:29:59;21.58;;;15.00;;
35128;SDS011;21301;43.626;10.580;2023-11-19T00:32:24;25.30;;;16.13;;
35128;SDS011;21301;43.626;10.580;2023-11-19T00:34:50;25.58;;;16.65;;
35128;SDS011;21301;43.626;10.580;2023-11-19T00:37:16;26.70;;;15.13;;
35128;SDS011;21301;43.626;10.580;2023-11-19T00:39:42;27.60;;;15.82;;
35128;SDS011;21301;43.626;10.580;2023-11-19T00:42:08;25.95;;;16.52;;
35128;SDS011;21301;43.626;10.580;2023-11-19T00:44:35;21.83;;;14.00;;
35128;SDS011;21301;43.626;10.580;2023-11-19T00:47:01;24.40;;;15.15;;
35128;SDS011;21301;43.626;10.580;2023-11-19T00:49:27;26.40;;;14.70;;
35128;SDS011;21301;43.626;10.580;2023-11-19T00:51:53;21.20;;;13.55;;
35128;SDS011;21301;43.626;10.580;2023-11-19T00:54:19;22.83;;;13.73;;
35128;SDS011;21301;43.626;10.580;2023-11-19T00:56:44;24.35;;;15.60;;
35128;SDS011;21301;43.626;10.580;2023-11-19T00:59:10;19.98;;;12.52;;
35128;SDS011;21301;43.626;10.580;2023-11-19T01:01:36;28.73;;;14.52;;
35128;SDS011;21301;43.626;10.580;2023-11-19T01:04:01;23.13;;;13.52;;
35128;SDS011;21301;43.626;10.580;2023-11-19T01:06:30;29.15;;;14.35;;
35128;SDS011;21301;43.626;10.580;2023-11-19T01:08:56;21.65;;;14.18;;
35128;SDS011;21301;43.626;10.580;2023-11-19T01:11:22;18.45;;;12.30;;
35128;SDS011;21301;43.626;10.580;2023-11-19T01:13:49;20.02;;;12.80;;
35128;SDS011;21301;43.626;10.580;2023-11-19T01:16:16;25.45;;;14.00;;
35128;SDS011;21301;43.626;10.580;2023-11-19T01:18:42;19.77;;;14.38;;
35128;SDS011;21301;43.626;10.580;2023-11-19T01:21:07;21.20;;;13.98;;
35128;SDS011;21301;43.626;10.580;2023-11-19T01:23:34;22.27;;;12.55;;
35128;SDS011;21301;43.626;10.580;2023-11-19T01:26:00;23.50;;;12.50;;
35128;SDS011;21301;43.626;10.580;2023-11-19T01:28:25;20.10;;;13.80;;
35128;SDS011;21301;43.626;10.580;2023-11-19T01:30:51;18.58;;;11.68;;
35128;SDS011;21301;43.626;10.580;2023-11-19T01:33:17;19.85;;;12.43;;
35128;SDS011;21301;43.626;10.580;2023-11-19T01:35:42;20.83;;;12.23;;
35128;SDS011;21301;43.626;10.580;2023-11-19T01:38:08;22.23;;;13.52;;
35128;SDS011;21301;43.626;10.580;2023-11-19T01:40:34;17.83;;;12.82;;
35128;SDS011;21301;43.626;10.580;2023-11-19T01:43:01;21.35;;;13.40;;
35128;SDS011;21301;43.626;10.580;2023-11-19T01:45:27;20.73;;;12.73;;
35128;SDS011;21301;43.626;10.580;2023-11-19T01:47:55;22.80;;;13.10;;
35128;SDS011;21301;43.626;10.580;2023-11-19T01:50:22;20.42;;;12.60;;
35128;SDS011;21301;43.626;10.580;2023-11-19T01:52:50;30.67;;;15.45;;
35128;SDS011;21301;43.626;10.580;2023-11-19T01:55:22;20.92;;;12.25;;
35128;SDS011;21301;43.626;10.580;2023-11-19T01:57:49;26.98;;;13.60;;
35128;SDS011;21301;43.626;10.580;2023-11-19T02:00:16;23.05;;;14.95;;
35128;SDS011;21301;43.626;10.580;2023-11-19T02:02:44;20.73;;;11.73;;
35128;SDS011;21301;43.626;10.580;2023-11-19T02:05:12;19.80;;;13.60;;
35128;SDS011;21301;43.626;10.580;2023-11-19T02:07:38;24.52;;;13.27;;
35128;SDS011;21301;43.626;10.580;2023-11-19T02:10:04;21.00;;;13.32;;
35128;SDS011;21301;43.626;10.580;2023-11-19T02:12:31;25.00;;;13.25;;
35128;SDS011;21301;43.626;10.580;2023-11-19T02:15:01;20.70;;;12.35;;
35128;SDS011;21301;43.626;10.580;2023-11-19T02:17:28;23.10;;;13.65;;
35128;SDS011;21301;43.626;10.580;2023-11-19T02:19:56;21.45;;;12.75;;
35128;SDS011;21301;43.626;10.580;2023-11-19T02:22:26;21.23;;;13.15;;
35128;SDS011;21301;43.626;10.580;2023-11-19T02:24:54;19.27;;;12.65;;
35128;SDS011;21301;43.626;10.580;2023-11-19T02:27:39;23.85;;;13.05;;
35128;SDS011;21301;43.626;10.580;2023-11-19T02:30:04;23.70;;;13.50;;
35128;SDS011;21301;43.626;10.580;2023-11-19T02:32:33;20.38;;;13.02;;
35128;SDS011;21301;43.626;10.580;2023-11-19T02:35:01;23.38;;;12.95;;
35128;SDS011;21301;43.626;10.580;2023-11-19T02:37:27;19.80;;;12.40;;
35128;SDS011;21301;43.626;10.580;2023-11-19T02:39:53;19.05;;;13.07;;
35128;SDS011;21301;43.626;10.580;2023-11-19T02:42:19;19.02;;;12.45;;
35128;SDS011;21301;43.626;10.580;2023-11-19T02:44:45;29.55;;;11.48;;
35128;SDS011;21301;43.626;10.580;2023-11-19T02:47:11;18.02;;;9.38;;
35128;SDS011;21301;43.626;10.580;2023-11-19T02:49:36;15.52;;;9.48;;
35128;SDS011;21301;43.626;10.580;2023-11-19T02:52:02;12.27;;;7.45;;
35128;SDS011;21301;43.626;10.580;2023-11-19T02:54:30;14.98;;;6.85;;
35128;SDS011;21301;43.626;10.580;2023-11-19T02:57:00;13.68;;;7.22;;
35128;SDS011;21301;43.626;10.580;2023-11-19T02:59:27;12.32;;;6.82;;
35128;SDS011;21301;43.626;10.580;2023-11-19T03:01:53;12.13;;;7.10;;
35128;SDS011;21301;43.626;10.580;2023-11-19T03:04:20;14.95;;;8.43;;
35128;SDS011;21301;43.626;10.580;2023-11-19T03:06:46;11.68;;;6.53;;
35128;SDS011;21301;43.626;10.580;2023-11-19T03:09:12;10.70;;;6.05;;
35128;SDS011;21301;43.626;10.580;2023-11-19T03:11:37;10.85;;;6.47;;
35128;SDS011;21301;43.626;10.580;2023-11-19T03:14:03;13.10;;;6.30;;
35128;SDS011;21301;43.626;10.580;2023-11-19T03:16:29;11.70;;;5.75;;
35128;SDS011;21301;43.626;10.580;2023-11-19T03:18:54;13.43;;;6.45;;
35128;SDS011;21301;43.626;10.580;2023-11-19T03:21:27;10.52;;;6.60;;
35128;SDS011;21301;43.626;10.580;2023-11-19T03:23:56;13.55;;;5.93;;
35128;SDS011;21301;43.626;10.580;2023-11-19T03:26:26;15.38;;;6.22;;
35128;SDS011;21301;43.626;10.580;2023-11-19T03:28:52;11.68;;;5.60;;
35128;SDS011;21301;43.626;10.580;2023-11-19T03:31:18;9.43;;;6.20;;
35128;SDS011;21301;43.626;10.580;2023-11-19T03:33:44;11.05;;;7.15;;
35128;SDS011;21301;43.626;10.580;2023-11-19T03:36:10;19.95;;;6.20;;
35128;SDS011;21301;43.626;10.580;2023-11-19T03:38:36;12.43;;;5.70;;
35128;SDS011;21301;43.626;10.580;2023-11-19T03:41:09;8.82;;;4.93;;
35128;SDS011;21301;43.626;10.580;2023-11-19T03:43:38;8.63;;;5.10;;
35128;SDS011;21301;43.626;10.580;2023-11-19T03:46:04;8.27;;;4.57;;
35128;SDS011;21301;43.626;10.580;2023-11-19T03:48:30;10.18;;;5.82;;
35128;SDS011;21301;43.626;10.580;2023-11-19T03:50:56;12.02;;;5.57;;
35128;SDS011;21301;43.626;10.580;2023-11-19T03:53:22;8.98;;;5.32;;
35128;SDS011;21301;43.626;10.580;2023-11-19T03:55:49;10.82;;;4.80;;
35128;SDS011;21301;43.626;10.580;2023-11-19T03:58:15;14.00;;;5.45;;
35128;SDS011;21301;43.626;10.580;2023-11-19T04:00:40;14.20;;;5.57;;
35128;SDS011;21301;43.626;10.580;2023-11-19T04:03:06;9.43;;;4.72;;
35128;SDS011;21301;43.626;10.580;2023-11-19T04:05:31;9.95;;;4.53;;
35128;SDS011;21301;43.626;10.580;2023-11-19T04:07:57;9.10;;;4.68;;
35128;SDS011;21301;43.626;10.580;2023-11-19T04:10:23;7.88;;;4.47;;
35128;SDS011;21301;43.626;10.580;2023-11-19T04:12:49;11.35;;;5.53;;
35128;SDS011;21301;43.626;10.580;2023-11-19T04:15:15;8.93;;;4.95;;
35128;SDS011;21301;43.626;10.580;2023-11-19T04:17:40;8.55;;;4.95;;
35128;SDS011;21301;43.626;10.580;2023-11-19T04:20:06;9.57;;;5.97;;
35128;SDS011;21301;43.626;10.580;2023-11-19T04:22:36;8.75;;;4.45;;
35128;SDS011;21301;43.626;10.580;2023-11-19T04:25:01;8.98;;;4.80;;
35128;SDS011;21301;43.626;10.580;2023-11-19T04:27:27;9.82;;;4.78;;
35128;SDS011;21301;43.626;10.580;2023-11-19T04:29:52;9.68;;;5.90;;
35128;SDS011;21301;43.626;10.580;2023-11-19T04:32:18;13.52;;;7.82;;
35128;SDS011;21301;43.626;10.580;2023-11-19T04:34:44;16.65;;;8.73;;
35128;SDS011;21301;43.626;10.580;2023-11-19T04:37:10;13.07;;;8.05;;
35128;SDS011;21301;43.626;10.580;2023-11-19T04:39:35;14.30;;;8.93;;
35128;SDS011;21301;43.626;10.580;2023-11-19T04:42:02;16.80;;;9.98;;
35128;SDS011;21301;43.626;10.580;2023-11-19T04:44:29;24.35;;;11.55;;
35128;SDS011;21301;43.626;10.580;2023-11-19T04:46:55;21.40;;;10.75;;
35128;SDS011;21301;43.626;10.580;2023-11-19T04:49:21;17.63;;;11.73;;
35128;SDS011;21301;43.626;10.580;2023-11-19T04:51:46;18.85;;;11.13;;
35128;SDS011;21301;43.626;10.580;2023-11-19T04:54:15;19.63;;;11.60;;
35128;SDS011;21301;43.626;10.580;2023-11-19T04:56:44;14.18;;;9.68;;
35128;SDS011;21301;43.626;10.580;2023-11-19T04:59:11;14.20;;;7.72;;
35128;SDS011;21301;43.626;10.580;2023-11-19T05:01:36;16.83;;;8.15;;
35128;SDS011;21301;43.626;10.580;2023-11-19T05:04:02;15.25;;;7.38;;
35128;SDS011;21301;43.626;10.580;2023-11-19T05:06:31;10.68;;;5.90;;
35128;SDS011;21301;43.626;10.580;2023-11-19T05:09:00;9.27;;;5.53;;
35128;SDS011;21301;43.626;10.580;2023-11-19T05:11:30;10.53;;;5.33;;
35128;SDS011;21301;43.626;10.580;2023-11-19T05:13:56;10.23;;;5.22;;
35128;SDS011;21301;43.626;10.580;2023-11-19T05:16:21;9.50;;;4.70;;
35128;SDS011;21301;43.626;10.580;2023-11-19T05:18:47;13.50;;;5.18;;
35128;SDS011;21301;43.626;10.580;2023-11-19T05:21:13;8.23;;;4.90;;
35128;SDS011;21301;43.626;10.580;2023-11-19T05:23:38;11.23;;;5.35;;
35128;SDS011;21301;43.626;10.580;2023-11-19T05:26:04;17.05;;;4.80;;
35128;SDS011;21301;43.626;10.580;2023-11-19T05:28:30;12.32;;;5.88;;
35128;SDS011;21301;43.626;10.580;2023-11-19T05:30:56;12.82;;;6.53;;
35128;SDS011;21301;43.626;10.580;2023-11-19T05:33:22;11.15;;;7.47;;
35128;SDS011;21301;43.626;10.580;2023-11-19T05:35:47;11.10;;;6.35;;
35128;SDS011;21301;43.626;10.580;2023-11-19T05:38:13;8.40;;;4.45;;
35128;SDS011;21301;43.626;10.580;2023-11-19T05:40:39;9.05;;;4.50;;
35128;SDS011;21301;43.626;10.580;2023-11-19T05:43:06;8.10;;;3.72;;
35128;SDS011;21301;43.626;10.580;2023-11-19T05:45:31;7.22;;;3.95;;
35128;SDS011;21301;43.626;10.580;2023-11-19T05:47:57;7.88;;;4.70;;
35128;SDS011;21301;43.626;10.580;2023-11-19T05:50:23;8.95;;;3.75;;
35128;SDS011;21301;43.626;10.580;2023-11-19T05:52:49;10.18;;;4.32;;
35128;SDS011;21301;43.626;10.580;2023-11-19T05:55:15;8.15;;;4.05;;
35128;SDS011;21301;43.626;10.580;2023-11-19T05:57:41;9.05;;;4.80;;
35128;SDS011;21301;43.626;10.580;2023-11-19T06:00:07;8.10;;;4.38;;
35128;SDS011;21301;43.626;10.580;2023-11-19T06:02:36;9.98;;;5.50;;
35128;SDS011;21301;43.626;10.580;2023-11-19T06:05:03;11.38;;;6.18;;
35128;SDS011;21301;43.626;10.580;2023-11-19T06:07:31;13.23;;;6.25;;
35128;SDS011;21301;43.626;10.580;2023-11-19T06:09:57;17.55;;;8.15;;
35128;SDS011;21301;43.626;10.580;2023-11-19T06:12:23;15.68;;;8.38;;
35128;SDS011;21301;43.626;10.580;2023-11-19T06:14:48;16.67;;;10.27;;
35128;SDS011;21301;43.626;10.580;2023-11-19T06:17:14;17.77;;;10.02;;
35128;SDS011;21301;43.626;10.580;2023-11-19T06:19:39;15.82;;;10.07;;
35128;SDS011;21301;43.626;10.580;2023-11-19T06:22:05;17.45;;;9.73;;
35128;SDS011;21301;43.626;10.580;2023-11-19T06:24:30;19.60;;;9.85;;
35128;SDS011;21301;43.626;10.580;2023-11-19T06:26:56;16.85;;;8.93;;
35128;SDS011;21301;43.626;10.580;2023-11-19T06:29:21;14.23;;;8.63;;
35128;SDS011;21301;43.626;10.580;2023-11-19T06:31:47;20.92;;;9.20;;
35128;SDS011;21301;43.626;10.580;2023-11-19T06:34:14;14.13;;;9.40;;
35128;SDS011;21301;43.626;10.580;2023-11-19T06:36:40;13.38;;;9.15;;
35128;SDS011;21301;43.626;10.580;2023-11-19T06:39:05;15.95;;;9.35;;
35128;SDS011;21301;43.626;10.580;2023-11-19T06:41:31;13.98;;;8.07;;
35128;SDS011;21301;43.626;10.580;2023-11-19T06:43:56;11.13;;;8.52;;
35128;SDS011;21301;43.626;10.580;2023-11-19T06:46:22;12.10;;;7.72;;
35128;SDS011;21301;43.626;10.580;2023-11-19T06:48:48;10.98;;;6.43;;
35128;SDS011;21301;43.626;10.580;2023-11-19T06:51:13;11.25;;;6.38;;
35128;SDS011;21301;43.626;10.580;2023-11-19T06:53:39;11.27;;;5.20;;
35128;SDS011;21301;43.626;10.580;2023-11-19T06:56:06;14.05;;;6.28;;
35128;SDS011;21301;43.626;10.580;2023-11-19T06:58:42;10.68;;;5.07;;
35128;SDS011;21301;43.626;10.580;2023-11-19T07:01:08;9.43;;;5.20;;
35128;SDS011;21301;43.626;10.580;2023-11-19T07:03:34;9.50;;;5.60;;
35128;SDS011;21301;43.626;10.580;2023-11-19T07:06:00;7.55;;;4.25;;
35128;SDS011;21301;43.626;10.580;2023-11-19T07:08:26;13.23;;;5.78;;
35128;SDS011;21301;43.626;10.580;2023-11-19T07:10:52;11.10;;;5.15;;
35128;SDS011;21301;43.626;10.580;2023-11-19T07:13:18;10.77;;;5.28;;
35128;SDS011;21301;43.626;10.580;2023-11-19T07:15:44;10.38;;;5.40;;
35128;SDS011;21301;43.626;10.580;2023-11-19T07:18:10;15.68;;;6.50;;
35128;SDS011;21301;43.626;10.580;2023-11-19T07:20:36;11.27;;;6.03;;
35128;SDS011;21301;43.626;10.580;2023-11-19T07:23:03;13.57;;;7.43;;
35128;SDS011;21301;43.626;10.580;2023-11-19T07:25:29;11.82;;;6.75;;
35128;SDS011;21301;43.626;10.580;2023-11-19T07:27:54;13.50;;;6.57;;
35128;SDS011;21301;43.626;10.580;2023-11-19T07:30:21;13.57;;;7.97;;
35128;SDS011;21301;43.626;10.580;2023-11-19T07:32:47;10.18;;;5.90;;
35128;SDS011;21301;43.626;10.580;2023-11-19T07:35:13;12.57;;;7.45;;
35128;SDS011;21301;43.626;10.580;2023-11-19T07:37:41;13.23;;;7.43;;
35128;SDS011;21301;43.626;10.580;2023-11-19T07:40:07;16.38;;;7.28;;
35128;SDS011;21301;43.626;10.580;2023-11-19T07:42:33;15.88;;;8.82;;
35128;SDS011;21301;43.626;10.580;2023-11-19T07:44:59;16.58;;;10.10;;
35128;SDS011;21301;43.626;10.580;2023-11-19T07:47:24;19.05;;;10.90;;
35128;SDS011;21301;43.626;10.580;2023-11-19T07:49:50;16.00;;;9.75;;
35128;SDS011;21301;43.626;10.580;2023-11-19T07:52:16;17.15;;;11.20;;
35128;SDS011;21301;43.626;10.580;2023-11-19T07:54:41;15.77;;;10.13;;
35128;SDS011;21301;43.626;10.580;2023-11-19T07:57:07;19.90;;;10.95;;
35128;SDS011;21301;43.626;10.580;2023-11-19T07:59:32;18.15;;;10.75;;
35128;SDS011;21301;43.626;10.580;2023-11-19T08:01:58;22.20;;;12.43;;
35128;SDS011;21301;43.626;10.580;2023-11-19T08:04:23;22.95;;;11.20;;
35128;SDS011;21301;43.626;10.580;2023-11-19T08:06:49;18.20;;;10.68;;
35128;SDS011;21301;43.626;10.580;2023-11-19T08:09:14;16.55;;;11.10;;
35128;SDS011;21301;43.626;10.580;2023-11-19T08:11:42;18.80;;;10.60;;
35128;SDS011;21301;43.626;10.580;2023-11-19T08:14:08;25.40;;;12.63;;
35128;SDS011;21301;43.626;10.580;2023-11-19T08:16:39;22.23;;;12.65;;
35128;SDS011;21301;43.626;10.580;2023-11-19T08:19:05;19.60;;;12.35;;
35128;SDS011;21301;43.626;10.580;2023-11-19T08:21:31;26.85;;;14.88;;
35128;SDS011;21301;43.626;10.580;2023-11-19T08:23:56;25.98;;;14.45;;
35128;SDS011;21301;43.626;10.580;2023-11-19T08:26:22;23.75;;;14.02;;
35128;SDS011;21301;43.626;10.580;2023-11-19T08:28:47;22.25;;;14.20;;
35128;SDS011;21301;43.626;10.580;2023-11-19T08:31:13;25.20;;;16.13;;
35128;SDS011;21301;43.626;10.580;2023-11-19T08:33:39;25.38;;;15.35;;
35128;SDS011;21301;43.626;10.580;2023-11-19T08:36:04;29.73;;;16.17;;
35128;SDS011;21301;43.626;10.580;2023-11-19T08:38:30;26.88;;;16.83;;
35128;SDS011;21301;43.626;10.580;2023-11-19T08:40:56;28.65;;;17.27;;
35128;SDS011;21301;43.626;10.580;2023-11-19T08:43:25;28.40;;;15.85;;
35128;SDS011;21301;43.626;10.580;2023-11-19T08:45:51;34.38;;;20.77;;
35128;SDS011;21301;43.626;10.580;2023-11-19T08:48:16;23.80;;;14.13;;
35128;SDS011;21301;43.626;10.580;2023-11-19T08:50:42;20.20;;;12.82;;
35128;SDS011;21301;43.626;10.580;2023-11-19T08:53:07;41.42;;;21.17;;
35128;SDS011;21301;43.626;10.580;2023-11-19T08:55:33;22.95;;;12.68;;
35128;SDS011;21301;43.626;10.580;2023-11-19T08:57:59;18.10;;;12.23;;
35128;SDS011;21301;43.626;10.580;2023-11-19T09:00:24;18.40;;;11.77;;
35128;SDS011;21301;43.626;10.580;2023-11-19T09:02:50;13.93;;;10.52;;
35128;SDS011;21301;43.626;10.580;2023-11-19T09:05:15;21.17;;;11.65;;
35128;SDS011;21301;43.626;10.580;2023-11-19T09:07:41;18.95;;;11.35;;
35128;SDS011;21301;43.626;10.580;2023-11-19T09:10:07;27.33;;;11.95;;
35128;SDS011;21301;43.626;10.580;2023-11-19T09:12:33;19.45;;;11.43;;
35128;SDS011;21301;43.626;10.580;2023-11-19T09:15:00;18.30;;;11.18;;
35128;SDS011;21301;43.626;10.580;2023-11-19T09:17:25;20.58;;;11.82;;
35128;SDS011;21301;43.626;10.580;2023-11-19T09:19:51;20.75;;;12.88;;
35128;SDS011;21301;43.626;10.580;2023-11-19T09:22:17;19.33;;;13.27;;
35128;SDS011;21301;43.626;10.580;2023-11-19T09:24:43;28.08;;;13.88;;
35128;SDS011;21301;43.626;10.580;2023-11-19T09:27:10;21.48;;;12.27;;
35128;SDS011;21301;43.626;10.580;2023-11-19T09:29:35;24.02;;;14.38;;
35128;SDS011;21301;43.626;10.580;2023-11-19T09:32:01;25.33;;;14.68;;
35128;SDS011;21301;43.626;10.580;2023-11-19T09:34:27;23.15;;;13.30;;
35128;SDS011;21301;43.626;10.580;2023-11-19T09:36:53;24.70;;;12.40;;
35128;SDS011;21301;43.626;10.580;2023-11-19T09:39:18;18.60;;;12.23;;
35128;SDS011;21301;43.626;10.580;2023-11-19T09:41:45;17.88;;;11.57;;
35128;SDS011;21301;43.626;10.580;2023-11-19T09:44:11;18.83;;;10.70;;
35128;SDS011;21301;43.626;10.580;2023-11-19T09:46:41;17.40;;;10.82;;
35128;SDS011;21301;43.626;10.580;2023-11-19T09:49:08;19.08;;;11.60;;
35128;SDS011;21301;43.626;10.580;2023-11-19T09:51:38;17.08;;;10.23;;
35128;SDS011;21301;43.626;10.580;2023-11-19T09:54:03;16.75;;;10.57;;
35128;SDS011;21301;43.626;10.580;2023-11-19T09:56:29;17.48;;;10.07;;
35128;SDS011;21301;43.626;10.580;2023-11-19T09:58:55;17.50;;;10.57;;
35128;SDS011;21301;43.626;10.580;2023-11-19T10:01:21;17.88;;;10.48;;
35128;SDS011;21301;43.626;10.580;2023-11-19T10:03:47;16.20;;;9.73;;
35128;SDS011;21301;43.626;10.580;2023-11-19T10:06:15;19.52;;;10.10;;
35128;SDS011;21301;43.626;10.580;2023-11-19T10:08:41;16.73;;;10.80;;
35128;SDS011;21301;43.626;10.580;2023-11-19T10:11:07;16.35;;;10.10;;
35128;SDS011;21301;43.626;10.580;2023-11-19T10:13:36;14.70;;;10.35;;
35128;SDS011;21301;43.626;10.580;2023-11-19T10:16:27;19.17;;;11.50;;
35128;SDS011;21301;43.626;10.580;2023-11-19T10:18:55;13.80;;;9.38;;
35128;SDS011;21301;43.626;10.580;2023-11-19T10:21:20;15.80;;;10.32;;
35128;SDS011;21301;43.626;10.580;2023-11-19T10:23:47;19.00;;;11.65;;
35128;SDS011;21301;43.626;10.580;2023-11-19T10:26:15;17.55;;;11.02;;
35128;SDS011;21301;43.626;10.580;2023-11-19T10:28:40;20.65;;;11.50;;
35128;SDS011;21301;43.626;10.580;2023-11-19T10:31:14;20.15;;;11.18;;
35128;SDS011;21301;43.626;10.580;2023-11-19T10:33:41;17.40;;;11.77;;
35128;SDS011;21301;43.626;10.580;2023-11-19T10:36:08;18.83;;;11.75;;
35128;SDS011;21301;43.626;10.580;2023-11-19T10:38:34;15.32;;;10.70;;
35128;SDS011;21301;43.626;10.580;2023-11-19T10:41:00;20.63;;;12.65;;
35128;SDS011;21301;43.626;10.580;2023-11-19T10:43:26;17.25;;;11.57;;
35128;SDS011;21301;43.626;10.580;2023-11-19T10:45:53;19.15;;;12.90;;
35128;SDS011;21301;43.626;10.580;2023-11-19T10:48:18;21.25;;;13.63;;
35128;SDS011;21301;43.626;10.580;2023-11-19T10:50:45;33.00;;;21.60;;
35128;SDS011;21301;43.626;10.580;2023-11-19T10:53:15;23.42;;;15.82;;
35128;SDS011;21301;43.626;10.580;2023-11-19T10:55:42;25.52;;;15.38;;
35128;SDS011;21301;43.626;10.580;2023-11-19T10:58:12;28.52;;;17.85;;
35128;SDS011;21301;43.626;10.580;2023-11-19T11:00:46;31.52;;;17.13;;
35128;SDS011;21301;43.626;10.580;2023-11-19T11:03:17;27.13;;;18.27;;
35128;SDS011;21301;43.626;10.580;2023-11-19T11:05:52;25.77;;;15.75;;
35128;SDS011;21301;43.626;10.580;2023-11-19T11:08:19;22.40;;;14.95;;
35128;SDS011;21301;43.626;10.580;2023-11-19T11:10:48;22.45;;;14.32;;
35128;SDS011;21301;43.626;10.580;2023-11-19T11:13:18;21.30;;;13.68;;
35128;SDS011;21301;43.626;10.580;2023-11-19T11:15:47;20.80;;;13.77;;
35128;SDS011;21301;43.626;10.580;2023-11-19T11:18:14;24.40;;;14.65;;
35128;SDS011;21301;43.626;10.580;2023-11-19T11:20:40;17.63;;;12.95;;
35128;SDS011;21301;43.626;10.580;2023-11-19T11:28:48;21.80;;;14.85;;
35128;SDS011;21301;43.626;10.580;2023-11-19T11:39:54;19.45;;;12.20;;
35128;SDS011;21301;43.626;10.580;2023-11-19T11:50:10;22.17;;;13.73;;
35128;SDS011;21301;43.626;10.580;2023-11-19T11:57:56;18.85;;;12.65;;
35128;SDS011;21301;43.626;10.580;2023-11-19T12:00:31;24.88;;;16.27;;
35128;SDS011;21301;43.626;10.580;2023-11-19T12:03:00;27.77;;;16.45;;
35128;SDS011;21301;43.626;10.580;2023-11-19T12:05:27;26.40;;;16.88;;
35128;SDS011;21301;43.626;10.580;2023-11-19T12:08:01;24.35;;;16.23;;
35128;SDS011;21301;43.626;10.580;2023-11-19T12:10:34;21.55;;;16.17;;
35128;SDS011;21301;43.626;10.580;2023-11-19T12:13:04;27.27;;;16.67;;
35128;SDS011;21301;43.626;10.580;2023-11-19T12:15:34;23.48;;;16.13;;
35128;SDS011;21301;43.626;10.580;2023-11-19T12:18:29;29.00;;;17.45;;
35128;SDS011;21301;43.626;10.580;2023-11-19T12:21:01;24.00;;;17.17;;
35128;SDS011;21301;43.626;10.580;2023-11-19T12:23:30;22.02;;;15.73;;
35128;SDS011;21301;43.626;10.580;2023-11-19T12:25:59;24.05;;;15.65;;
35128;SDS011;21301;43.626;10.580;2023-11-19T12:28:25;25.08;;;15.55;;
35128;SDS011;21301;43.626;10.580;2023-11-19T12:30:54;24.63;;;15.45;;
35128;SDS011;21301;43.626;10.580;2023-11-19T12:33:35;24.98;;;16.65;;
35128;SDS011;21301;43.626;10.580;2023-11-19T12:36:00;20.27;;;13.52;;
35128;SDS011;21301;43.626;10.580;2023-11-19T12:38:33;20.17;;;14.57;;
35128;SDS011;21301;43.626;10.580;2023-11-19T12:41:02;27.52;;;16.65;;
35128;SDS011;21301;43.626;10.580;2023-11-19T12:43:29;23.88;;;15.40;;
35128;SDS011;21301;43.626;10.580;2023-11-19T12:45:54;24.05;;;16.30;;
35128;SDS011;21301;43.626;10.580;2023-11-19T12:48:20;23.67;;;15.43;;
35128;SDS011;21301;43.626;10.580;2023-11-19T12:50:52;26.27;;;16.52;;
35128;SDS011;21301;43.626;10.580;2023-11-19T12:53:26;25.38;;;16.05;;
35128;SDS011;21301;43.626;10.580;2023-11-19T12:55:53;26.80;;;16.25;;
35128;SDS011;21301;43.626;10.580;2023-11-19T12:58:33;27.42;;;16.50;;
35128;SDS011;21301;43.626;10.580;2023-11-19T13:01:04;23.55;;;16.17;;
35128;SDS011;21301;43.626;10.580;2023-11-19T13:03:31;21.08;;;14.93;;
35128;SDS011;21301;43.626;10.580;2023-11-19T13:06:07;25.30;;;15.25;;
35128;SDS011;21301;43.626;10.580;2023-11-19T13:11:06;24.55;;;16.88;;
35128;SDS011;21301;43.626;10.580;2023-11-19T13:13:52;22.65;;;15.18;;
35128;SDS011;21301;43.626;10.580;2023-11-19T13:16:22;26.10;;;15.77;;
35128;SDS011;21301;43.626;10.580;2023-11-19T13:18:48;24.90;;;16.35;;
35128;SDS011;21301;43.626;10.580;2023-11-19T13:21:14;24.70;;;15.50;;
35128;SDS011;21301;43.626;10.580;2023-11-19T13:23:39;27.60;;;15.93;;
35128;SDS011;21301;43.626;10.580;2023-11-19T13:26:05;24.92;;;16.10;;
35128;SDS011;21301;43.626;10.580;2023-11-19T13:28:31;29.98;;;18.92;;
35128;SDS011;21301;43.626;10.580;2023-11-19T13:30:56;30.70;;;18.90;;
35128;SDS011;21301;43.626;10.580;2023-11-19T13:33:23;29.92;;;17.67;;
35128;SDS011;21301;43.626;10.580;2023-11-19T13:35:48;32.20;;;18.70;;
35128;SDS011;21301;43.626;10.580;2023-11-19T13:38:14;23.83;;;15.30;;
35128;SDS011;21301;43.626;10.580;2023-11-19T13:40:39;27.17;;;17.15;;
35128;SDS011;21301;43.626;10.580;2023-11-19T13:43:05;22.98;;;15.27;;
35128;SDS011;21301;43.626;10.580;2023-11-19T13:45:31;25.10;;;15.57;;
35128;SDS011;21301;43.626;10.580;2023-11-19T13:47:56;23.98;;;15.43;;
35128;SDS011;21301;43.626;10.580;2023-11-19T13:50:22;22.48;;;15.75;;
35128;SDS011;21301;43.626;10.580;2023-11-19T13:52:48;21.08;;;14.13;;
35128;SDS011;21301;43.626;10.580;2023-11-19T13:55:14;21.73;;;16.25;;
35128;SDS011;21301;43.626;10.580;2023-11-19T13:57:40;21.42;;;15.02;;
35128;SDS011;21301;43.626;10.580;2023-11-19T14:00:10;23.77;;;14.43;;
35128;SDS011;21301;43.626;10.580;2023-11-19T14:02:41;20.17;;;14.15;;
35128;SDS011;21301;43.626;10.580;2023-11-19T14:05:10;30.80;;;17.98;;
35128;SDS011;21301;43.626;10.580;2023-11-19T14:07:39;27.45;;;17.17;;
35128;SDS011;21301;43.626;10.580;2023-11-19T14:10:05;36.00;;;17.58;;
35128;SDS011;21301;43.626;10.580;2023-11-19T14:12:35;28.50;;;16.02;;
35128;SDS011;21301;43.626;10.580;2023-11-19T14:15:04;27.13;;;16.77;;
35128;SDS011;21301;43.626;10.580;2023-11-19T14:17:31;23.77;;;15.50;;
35128;SDS011;21301;43.626;10.580;2023-11-19T14:19:57;28.45;;;16.27;;
35128;SDS011;21301;43.626;10.580;2023-11-19T14:22:23;25.35;;;16.00;;
35128;SDS011;21301;43.626;10.580;2023-11-19T14:24:49;25.58;;;16.95;;
35128;SDS011;21301;43.626;10.580;2023-11-19T14:27:15;26.25;;;17.60;;
35128;SDS011;21301;43.626;10.580;2023-11-19T14:29:42;24.95;;;17.60;;
35128;SDS011;21301;43.626;10.580;2023-11-19T14:32:08;23.65;;;17.35;;
35128;SDS011;21301;43.626;10.580;2023-11-19T14:34:33;30.63;;;17.85;;
35128;SDS011;21301;43.626;10.580;2023-11-19T14:36:59;28.05;;;18.35;;
35128;SDS011;21301;43.626;10.580;2023-11-19T14:39:25;27.88;;;18.35;;
35128;SDS011;21301;43.626;10.580;2023-11-19T14:41:51;27.50;;;19.20;;